Weather at Kenneth Kaunda International Airport

Public forecast

Using degrees Celsius for public forecast. Weather courtesy of forecast.io.

Current aviation weather report (METAR) for Kenneth Kaunda International Airport

Report is more than 2 hours old.

Retrieved 2021/01/22 22:00 UTC (3 hours ago):

FLKK 222200Z 34003KT 9999 FEW065CB FEW300 20/19 Q1016

Closest aviation forecast (TAF) to Kenneth Kaunda International Airport

Retrieved 2021-01-23 00:00 UTC (54 minutes ago):

TAF FLKK 222200Z 2300/2406 VRB04KT 9999 SCT006 SCT100 BECMG 2304/2306 33005KT BKN010 BECMG 2309/2310 VRB04KT FEW035CB SCT035 BECMG 2315/2318 FEW///CB BKN080